createdAt,value
2017-12-19T00:00:26.733Z,950.7
2017-12-19T00:01:34.860Z,950.8
2017-12-19T00:02:42.826Z,950.7
2017-12-19T00:03:50.909Z,950.8
2017-12-19T00:04:58.996Z,950.7
2017-12-19T00:06:07.198Z,950.8
2017-12-19T00:07:15.424Z,950.8
2017-12-19T00:08:23.262Z,950.8
2017-12-19T00:09:31.350Z,950.8
2017-12-19T00:10:39.434Z,950.8
2017-12-19T00:11:47.520Z,950.8
2017-12-19T00:12:55.771Z,950.9
2017-12-19T00:14:03.693Z,950.9
2017-12-19T00:15:11.789Z,950.9
2017-12-19T00:16:19.868Z,950.9
2017-12-19T00:17:27.954Z,950.9
2017-12-19T00:18:36.169Z,950.9
2017-12-19T00:19:44.197Z,950.9
2017-12-19T00:20:52.288Z,950.9
2017-12-19T00:22:00.539Z,950.9
2017-12-19T00:23:08.545Z,950.9
2017-12-19T00:24:16.599Z,950.9
2017-12-19T00:25:24.635Z,950.9
2017-12-19T00:26:32.861Z,950.9
2017-12-19T00:27:40.807Z,950.9
2017-12-19T00:28:48.898Z,951.0
2017-12-19T00:29:57.030Z,951.0
2017-12-19T00:31:05.078Z,950.9
2017-12-19T00:32:13.167Z,950.9
2017-12-19T00:33:21.254Z,950.9
2017-12-19T00:34:29.348Z,950.9
2017-12-19T00:35:37.647Z,950.9
2017-12-19T00:36:45.512Z,950.9
2017-12-19T00:37:53.732Z,950.9
2017-12-19T00:39:01.699Z,950.9
2017-12-19T00:40:09.790Z,950.9
2017-12-19T00:41:17.932Z,950.9
2017-12-19T00:42:25.963Z,950.8
2017-12-19T00:43:34.048Z,950.8
2017-12-19T00:44:42.138Z,950.8
2017-12-19T00:45:50.223Z,950.8
2017-12-19T00:46:58.429Z,950.8
2017-12-19T00:48:06.412Z,950.9
2017-12-19T00:49:14.561Z,950.9
2017-12-19T00:50:22.587Z,950.9
2017-12-19T00:51:30.673Z,951.0
2017-12-19T00:52:38.882Z,951.0
2017-12-19T00:53:46.903Z,951.0
2017-12-19T00:54:54.934Z,951.0
2017-12-19T00:56:03.018Z,951.0
2017-12-19T00:57:11.105Z,951.1
2017-12-19T00:58:19.413Z,951.1
2017-12-19T00:59:27.280Z,951.1
2017-12-19T01:00:35.369Z,951.1
2017-12-19T01:01:43.459Z,951.1
2017-12-19T01:02:51.546Z,951.1
2017-12-19T01:03:59.753Z,951.1
2017-12-19T01:05:07.715Z,951.2
2017-12-19T01:06:15.803Z,951.2
2017-12-19T01:07:24.017Z,951.2
2017-12-19T01:08:31.978Z,951.3
2017-12-19T01:09:40.189Z,951.3
2017-12-19T01:10:48.153Z,951.3
2017-12-19T01:11:56.240Z,951.3
2017-12-19T01:13:04.327Z,951.3
2017-12-19T01:14:15.537Z,951.3
2017-12-19T01:15:20.565Z,951.2
2017-12-19T01:16:28.782Z,951.2
2017-12-19T01:17:36.675Z,951.2
2017-12-19T01:18:44.765Z,951.2
2017-12-19T01:19:52.851Z,951.2
2017-12-19T01:21:00.998Z,951.2
2017-12-19T01:22:09.028Z,951.2
2017-12-19T01:23:17.111Z,951.2
2017-12-19T01:24:25.199Z,951.2
2017-12-19T01:25:33.407Z,951.2
2017-12-19T01:26:41.500Z,951.2
2017-12-19T01:27:49.466Z,951.2
2017-12-19T01:28:57.554Z,951.1
2017-12-19T01:30:05.822Z,951.1
2017-12-19T01:31:13.876Z,951.1
2017-12-19T01:32:21.870Z,951.1
2017-12-19T01:33:29.905Z,951.1
2017-12-19T01:34:37.988Z,951.1
2017-12-19T01:35:46.076Z,951.2
2017-12-19T01:36:54.162Z,951.2
2017-12-19T01:38:02.373Z,951.2
2017-12-19T01:39:10.338Z,951.2
2017-12-19T01:40:18.424Z,951.2
2017-12-19T01:41:26.636Z,951.2
2017-12-19T01:42:34.663Z,951.2
2017-12-19T01:43:42.805Z,951.2
2017-12-19T01:44:50.839Z,951.2
2017-12-19T01:45:58.924Z,951.2
2017-12-19T01:47:07.025Z,951.2
2017-12-19T01:48:15.106Z,951.2
2017-12-19T01:49:23.259Z,951.3
2017-12-19T01:50:31.280Z,951.2
2017-12-19T01:51:39.367Z,951.3
2017-12-19T01:52:47.568Z,951.3
2017-12-19T01:53:55.704Z,951.3
2017-12-19T01:55:03.749Z,951.3
2017-12-19T01:56:11.717Z,951.3
2017-12-19T01:57:19.922Z,951.3
2017-12-19T01:58:27.889Z,951.2
2017-12-19T01:59:35.979Z,951.3
2017-12-19T02:00:44.204Z,951.3
2017-12-19T02:01:52.236Z,951.4
2017-12-19T02:03:00.324Z,951.3
2017-12-19T02:04:08.409Z,951.3
2017-12-19T02:05:16.495Z,951.3
2017-12-19T02:06:24.707Z,951.3
2017-12-19T02:07:32.669Z,951.3
2017-12-19T02:08:40.757Z,951.3
2017-12-19T02:09:48.844Z,951.3
2017-12-19T02:10:56.931Z,951.3
2017-12-19T02:12:05.140Z,951.4
2017-12-19T02:13:13.161Z,951.3
2017-12-19T02:14:21.192Z,951.4
2017-12-19T02:15:29.446Z,951.4
2017-12-19T02:16:37.367Z,951.4
2017-12-19T02:17:45.574Z,951.5
2017-12-19T02:18:53.540Z,951.5
2017-12-19T02:20:01.628Z,951.5
2017-12-19T02:21:09.784Z,951.5
2017-12-19T02:22:17.819Z,951.6
2017-12-19T02:23:25.959Z,951.6
2017-12-19T02:24:33.991Z,951.6
2017-12-19T02:25:42.076Z,951.6
2017-12-19T02:26:50.165Z,951.6
2017-12-19T02:27:58.250Z,951.7
2017-12-19T02:29:06.461Z,951.7
2017-12-19T02:30:14.461Z,951.7
2017-12-19T02:31:22.512Z,951.7
2017-12-19T02:32:30.602Z,951.6
2017-12-19T02:33:38.686Z,951.6
2017-12-19T02:34:46.901Z,951.6
2017-12-19T02:35:54.868Z,951.7
2017-12-19T02:37:02.957Z,951.7
2017-12-19T02:38:11.046Z,951.7
2017-12-19T02:39:19.131Z,951.7
2017-12-19T02:40:27.274Z,951.7
2017-12-19T02:41:35.307Z,951.7
2017-12-19T02:42:43.392Z,951.7
2017-12-19T02:43:51.488Z,951.7
2017-12-19T02:44:59.687Z,951.7
2017-12-19T02:46:07.780Z,951.7
2017-12-19T02:47:15.746Z,951.7
2017-12-19T02:48:23.833Z,951.7
2017-12-19T02:49:31.923Z,951.6
2017-12-19T02:50:40.009Z,951.6
2017-12-19T02:51:48.161Z,951.6
2017-12-19T02:52:56.184Z,951.6
2017-12-19T02:54:04.271Z,951.6
2017-12-19T02:55:12.362Z,951.6
2017-12-19T02:56:20.449Z,951.5
2017-12-19T02:57:28.754Z,951.5
2017-12-19T02:58:36.623Z,951.5
2017-12-19T02:59:44.707Z,951.6
2017-12-19T03:00:52.854Z,951.6
2017-12-19T03:02:01.058Z,951.7
2017-12-19T03:03:09.027Z,951.7
2017-12-19T03:04:17.059Z,951.8
2017-12-19T03:05:25.147Z,951.8
2017-12-19T03:06:33.390Z,951.8
2017-12-19T03:07:41.328Z,951.7
2017-12-19T03:08:49.541Z,951.7
2017-12-19T03:09:57.504Z,951.6
2017-12-19T03:11:05.596Z,951.5
2017-12-19T03:12:13.683Z,951.5
2017-12-19T03:13:21.767Z,951.5
2017-12-19T03:14:29.913Z,951.4
2017-12-19T03:15:38.063Z,951.4
2017-12-19T03:16:46.151Z,951.5
2017-12-19T03:17:54.125Z,951.6
2017-12-19T03:19:02.217Z,951.7
2017-12-19T03:20:10.545Z,951.6
2017-12-19T03:21:18.389Z,951.6
2017-12-19T03:22:26.980Z,951.6
2017-12-19T03:23:34.563Z,951.6
2017-12-19T03:24:42.651Z,951.6
2017-12-19T03:25:50.794Z,951.6
2017-12-19T03:26:58.827Z,951.6
2017-12-19T03:28:06.915Z,951.7
2017-12-19T03:29:14.999Z,951.8
2017-12-19T03:30:23.085Z,951.8
2017-12-19T03:31:31.295Z,951.8
2017-12-19T03:32:39.379Z,951.9
2017-12-19T03:33:47.480Z,951.9
2017-12-19T03:34:55.435Z,951.9
2017-12-19T03:36:03.521Z,952.0
2017-12-19T03:37:11.665Z,952.1
2017-12-19T03:38:19.826Z,952.0
2017-12-19T03:39:27.781Z,952.0
2017-12-19T03:40:35.867Z,951.9
2017-12-19T03:41:43.962Z,951.8
2017-12-19T03:42:52.161Z,951.8
2017-12-19T03:44:00.130Z,951.8
2017-12-19T03:45:08.216Z,951.7
2017-12-19T03:46:16.304Z,951.7
2017-12-19T03:47:24.398Z,951.7
2017-12-19T03:48:32.660Z,951.7
2017-12-19T03:49:40.566Z,951.7
2017-12-19T03:50:48.654Z,951.8
2017-12-19T03:51:56.785Z,951.8
2017-12-19T03:53:04.868Z,951.9
2017-12-19T03:54:13.010Z,951.9
2017-12-19T03:55:21.040Z,951.9
2017-12-19T03:56:29.126Z,951.9
2017-12-19T03:57:37.215Z,951.9
2017-12-19T03:58:45.300Z,951.9
2017-12-19T03:59:53.510Z,951.9
2017-12-19T04:01:01.523Z,951.9
2017-12-19T04:02:09.568Z,951.9
2017-12-19T04:03:17.660Z,951.9
2017-12-19T04:04:25.867Z,951.9
2017-12-19T04:05:33.891Z,952.0
2017-12-19T04:06:41.923Z,952.1
2017-12-19T04:07:50.007Z,952.1
2017-12-19T04:08:58.094Z,952.1
2017-12-19T04:10:06.183Z,952.1
2017-12-19T04:11:14.387Z,952.1
2017-12-19T04:12:22.353Z,952.1
2017-12-19T04:13:30.439Z,952.1
2017-12-19T04:14:38.529Z,952.2
2017-12-19T04:15:46.681Z,952.1
2017-12-19T04:16:54.758Z,952.1
2017-12-19T04:18:02.786Z,952.1
2017-12-19T04:19:10.890Z,952.1
2017-12-19T04:20:19.090Z,952.1
2017-12-19T04:21:27.056Z,952.1
2017-12-19T04:22:35.197Z,952.1
2017-12-19T04:23:43.248Z,952.1
2017-12-19T04:24:51.484Z,952.1
2017-12-19T04:25:59.418Z,952.2
2017-12-19T04:27:07.509Z,952.1
2017-12-19T04:28:15.651Z,952.1
2017-12-19T04:29:23.815Z,952.1
2017-12-19T04:30:31.770Z,952.1
2017-12-19T04:31:39.853Z,952.0
2017-12-19T04:32:47.940Z,952.0
2017-12-19T04:33:56.189Z,952.0
2017-12-19T04:35:04.112Z,952.0
2017-12-19T04:36:12.324Z,952.0
2017-12-19T04:37:20.286Z,952.1
2017-12-19T04:38:28.511Z,952.1
2017-12-19T04:39:36.517Z,952.1
2017-12-19T04:40:44.546Z,952.2
2017-12-19T04:41:52.639Z,952.2
2017-12-19T04:43:00.722Z,952.2
2017-12-19T04:44:08.805Z,952.2
2017-12-19T04:45:16.947Z,952.3
2017-12-19T04:46:24.978Z,952.3
2017-12-19T04:47:33.066Z,952.3
2017-12-19T04:48:41.155Z,952.3
2017-12-19T04:49:49.237Z,952.3
2017-12-19T04:50:57.445Z,952.3
2017-12-19T04:52:05.531Z,952.3
2017-12-19T04:53:13.506Z,952.2
2017-12-19T04:54:21.585Z,952.2
2017-12-19T04:55:29.987Z,952.2
2017-12-19T04:56:38.124Z,952.2
2017-12-19T04:57:46.155Z,952.2
2017-12-19T04:58:54.240Z,952.3
2017-12-19T05:00:02.413Z,952.3
2017-12-19T05:01:10.450Z,952.4
2017-12-19T05:02:18.625Z,952.4
2017-12-19T05:03:26.591Z,952.4
2017-12-19T05:04:34.765Z,952.3
2017-12-19T05:05:42.772Z,952.4
2017-12-19T05:06:50.858Z,952.4
2017-12-19T05:07:58.999Z,952.4
2017-12-19T05:09:07.043Z,952.4
2017-12-19T05:10:15.120Z,952.4
2017-12-19T05:11:23.203Z,952.4
2017-12-19T05:12:31.291Z,952.3
2017-12-19T05:13:39.441Z,952.3
2017-12-19T05:14:47.484Z,952.3
2017-12-19T05:15:55.551Z,952.3
2017-12-19T05:17:03.669Z,952.3
2017-12-19T05:18:11.754Z,952.4
2017-12-19T05:19:19.963Z,952.4
2017-12-19T05:20:27.930Z,952.5
2017-12-19T05:21:36.019Z,952.5
2017-12-19T05:22:44.106Z,952.5
2017-12-19T05:23:52.248Z,952.5
2017-12-19T05:25:01.481Z,952.5
2017-12-19T05:26:08.366Z,952.6
2017-12-19T05:27:16.456Z,952.6
2017-12-19T05:28:24.557Z,952.6
2017-12-19T05:29:32.655Z,952.6
2017-12-19T05:30:40.841Z,952.6
2017-12-19T05:31:48.830Z,952.6
2017-12-19T05:32:56.897Z,952.6
2017-12-19T05:34:04.980Z,952.7
2017-12-19T05:35:13.069Z,952.6
2017-12-19T05:36:21.272Z,952.5
2017-12-19T05:37:29.411Z,952.4
2017-12-19T05:38:37.328Z,952.4
2017-12-19T05:39:45.466Z,952.4
2017-12-19T05:40:53.495Z,952.4
2017-12-19T05:42:01.671Z,952.4
2017-12-19T05:43:09.674Z,952.5
2017-12-19T05:44:17.754Z,952.5
2017-12-19T05:45:25.950Z,952.6
2017-12-19T05:46:34.345Z,952.6
2017-12-19T05:47:42.436Z,952.6
2017-12-19T05:48:50.151Z,952.6
2017-12-19T05:49:58.237Z,952.6
2017-12-19T05:51:06.393Z,952.6
2017-12-19T05:52:14.813Z,952.5
2017-12-19T05:53:22.911Z,952.5
2017-12-19T05:54:30.895Z,952.5
2017-12-19T05:55:38.743Z,952.6
2017-12-19T05:56:46.763Z,952.6
2017-12-19T05:57:54.933Z,952.7
2017-12-19T05:59:03.068Z,952.7
2017-12-19T06:00:11.702Z,952.8
2017-12-19T06:01:19.121Z,952.8
2017-12-19T06:02:27.212Z,952.9
2017-12-19T06:03:35.296Z,952.9
2017-12-19T06:04:43.574Z,952.9
2017-12-19T06:05:51.472Z,952.9
2017-12-19T06:06:59.554Z,952.8
2017-12-19T06:08:07.642Z,952.8
2017-12-19T06:09:15.724Z,952.9
2017-12-19T06:10:23.873Z,952.9
2017-12-19T06:11:33.077Z,952.9
2017-12-19T06:12:41.108Z,953.0
2017-12-19T06:13:49.344Z,953.0
2017-12-19T06:14:58.056Z,953.1
2017-12-19T06:16:05.869Z,953.0
2017-12-19T06:17:13.676Z,953.0
2017-12-19T06:18:21.675Z,953.0
2017-12-19T06:19:29.621Z,953.0
2017-12-19T06:20:37.955Z,953.1
2017-12-19T06:21:45.850Z,953.1
2017-12-19T06:22:54.009Z,953.2
2017-12-19T06:24:01.969Z,953.2
2017-12-19T06:25:10.050Z,953.3
2017-12-19T06:26:18.132Z,953.4
2017-12-19T06:27:26.279Z,953.4
2017-12-19T06:28:34.308Z,953.5
2017-12-19T06:29:42.391Z,953.5
2017-12-19T06:30:50.480Z,953.4
2017-12-19T06:31:58.564Z,953.4
2017-12-19T06:33:06.771Z,953.5
2017-12-19T06:34:14.737Z,953.5
2017-12-19T06:35:22.823Z,953.5
2017-12-19T06:36:30.909Z,953.6
2017-12-19T06:37:39.183Z,953.6
2017-12-19T06:38:47.134Z,953.6
2017-12-19T06:39:55.162Z,953.6
2017-12-19T06:41:03.385Z,953.6
2017-12-19T06:42:11.405Z,953.7
2017-12-19T06:43:19.560Z,953.6
2017-12-19T06:44:27.583Z,953.7
2017-12-19T06:45:35.621Z,953.7
2017-12-19T06:46:43.764Z,953.7
2017-12-19T06:47:51.798Z,953.8
2017-12-19T06:48:59.894Z,953.9
2017-12-19T06:50:08.143Z,953.9
2017-12-19T06:51:16.056Z,953.9
2017-12-19T06:52:24.146Z,953.9
2017-12-19T06:53:32.229Z,953.9
2017-12-19T06:54:40.316Z,953.9
2017-12-19T06:55:48.674Z,953.8
2017-12-19T06:56:56.561Z,953.9
2017-12-19T06:58:04.647Z,953.9
2017-12-19T06:59:12.788Z,954.0
2017-12-19T07:00:20.850Z,954.0
2017-12-19T07:01:28.963Z,954.1
2017-12-19T07:02:36.991Z,954.1
2017-12-19T07:03:45.076Z,954.1
2017-12-19T07:04:53.160Z,954.1
2017-12-19T07:06:01.247Z,954.0
2017-12-19T07:07:09.456Z,954.0
2017-12-19T07:08:17.420Z,954.0
2017-12-19T07:09:25.747Z,954.0
2017-12-19T07:10:33.590Z,954.0
2017-12-19T07:11:41.675Z,954.1
2017-12-19T07:12:49.819Z,954.2
2017-12-19T07:13:57.919Z,954.2
2017-12-19T07:15:06.062Z,954.3
2017-12-19T07:16:14.045Z,954.2
2017-12-19T07:17:22.150Z,954.2
2017-12-19T07:18:30.297Z,954.2
2017-12-19T07:19:38.320Z,954.2
2017-12-19T07:20:46.406Z,954.2
2017-12-19T07:21:54.492Z,954.2
2017-12-19T07:23:02.576Z,954.2
2017-12-19T07:24:10.783Z,954.2
2017-12-19T07:25:18.750Z,954.3
2017-12-19T07:26:26.845Z,954.4
2017-12-19T07:27:34.920Z,954.5
2017-12-19T07:28:43.005Z,954.5
2017-12-19T07:29:51.146Z,954.5
2017-12-19T07:30:59.235Z,954.4
2017-12-19T07:32:07.266Z,954.4
2017-12-19T07:33:15.359Z,954.4
2017-12-19T07:34:23.448Z,954.5
2017-12-19T07:35:31.877Z,954.5
2017-12-19T07:36:39.871Z,954.6
2017-12-19T07:37:48.104Z,954.6
2017-12-19T07:38:56.044Z,954.5
2017-12-19T07:40:04.171Z,954.6
2017-12-19T07:41:12.274Z,954.6
2017-12-19T07:42:20.335Z,954.5
2017-12-19T07:43:28.420Z,954.5
2017-12-19T07:44:36.622Z,954.5
2017-12-19T07:45:44.592Z,954.5
2017-12-19T07:46:52.800Z,954.5
2017-12-19T07:48:00.766Z,954.5
2017-12-19T07:49:08.975Z,954.6
2017-12-19T07:50:16.936Z,954.6
2017-12-19T07:51:25.026Z,954.5
2017-12-19T07:52:33.167Z,954.5
2017-12-19T07:53:41.195Z,954.5
2017-12-19T07:54:49.352Z,954.5
2017-12-19T07:55:57.369Z,954.5
2017-12-19T07:57:05.454Z,954.5
2017-12-19T07:58:13.662Z,954.5
2017-12-19T07:59:21.683Z,954.4
2017-12-19T08:00:29.713Z,954.4
2017-12-19T08:01:37.797Z,954.4
2017-12-19T08:02:45.939Z,954.5
2017-12-19T08:03:54.146Z,954.6
2017-12-19T08:05:02.056Z,954.6
2017-12-19T08:06:10.141Z,954.5
2017-12-19T08:07:18.227Z,954.4
2017-12-19T08:08:26.321Z,954.4
2017-12-19T08:09:34.467Z,954.4
2017-12-19T08:10:42.498Z,954.4
2017-12-19T08:11:50.583Z,954.4
2017-12-19T08:12:58.667Z,954.4
2017-12-19T08:14:06.755Z,954.5
2017-12-19T08:15:14.899Z,954.4
2017-12-19T08:16:22.927Z,954.5
2017-12-19T08:17:31.019Z,954.5
2017-12-19T08:18:39.217Z,954.5
2017-12-19T08:19:47.184Z,954.5
2017-12-19T08:20:55.329Z,954.5
2017-12-19T08:22:03.356Z,954.6
2017-12-19T08:23:11.506Z,954.6
2017-12-19T08:24:19.530Z,954.6
2017-12-19T08:25:27.614Z,954.7
2017-12-19T08:26:35.913Z,954.7
2017-12-19T08:27:43.788Z,954.7
2017-12-19T08:28:51.880Z,954.7
2017-12-19T08:29:59.962Z,954.6
2017-12-19T08:31:08.057Z,954.6
2017-12-19T08:32:16.200Z,954.6
2017-12-19T08:33:24.229Z,954.7
2017-12-19T08:34:32.435Z,954.7
2017-12-19T08:35:40.529Z,954.7
2017-12-19T08:36:48.572Z,954.7
2017-12-19T08:37:56.630Z,954.8
2017-12-19T08:39:04.674Z,954.9
2017-12-19T08:40:12.750Z,954.9
2017-12-19T08:41:20.834Z,954.9
2017-12-19T08:42:28.921Z,954.9
2017-12-19T08:43:37.124Z,954.8
2017-12-19T08:44:45.192Z,954.8
2017-12-19T08:45:53.183Z,954.8
2017-12-19T08:47:01.264Z,954.8
2017-12-19T08:48:09.350Z,954.8
2017-12-19T08:49:17.508Z,954.8
2017-12-19T08:50:25.644Z,954.8
2017-12-19T08:51:33.622Z,954.8
2017-12-19T08:52:41.711Z,954.9
2017-12-19T08:53:49.995Z,954.8
2017-12-19T08:54:57.940Z,954.8
2017-12-19T08:56:05.995Z,954.9
2017-12-19T08:57:14.061Z,954.9
2017-12-19T08:58:22.328Z,955.0
2017-12-19T08:59:30.229Z,955.0
2017-12-19T09:00:38.435Z,955.1
2017-12-19T09:01:46.415Z,955.1
2017-12-19T09:02:54.497Z,955.1
2017-12-19T09:04:02.583Z,955.0
2017-12-19T09:05:10.671Z,955.0
2017-12-19T09:06:18.878Z,955.0
2017-12-19T09:07:27.026Z,955.0
2017-12-19T09:08:34.928Z,955.0
2017-12-19T09:09:43.013Z,955.0
2017-12-19T09:10:51.100Z,954.9
2017-12-19T09:11:59.271Z,954.9
2017-12-19T09:13:07.298Z,955.0
2017-12-19T09:14:15.386Z,955.0
2017-12-19T09:15:23.471Z,955.0
2017-12-19T09:16:31.558Z,955.1
2017-12-19T09:17:39.701Z,955.2
2017-12-19T09:18:47.734Z,955.3
2017-12-19T09:19:55.818Z,955.3
2017-12-19T09:21:03.916Z,955.3
2017-12-19T09:22:12.206Z,955.3
2017-12-19T09:23:20.142Z,955.4
2017-12-19T09:24:28.167Z,955.4
2017-12-19T09:25:36.254Z,955.5
2017-12-19T09:26:44.419Z,955.5
2017-12-19T09:27:52.432Z,955.4
2017-12-19T09:29:00.639Z,955.4
2017-12-19T09:30:08.762Z,955.3
2017-12-19T09:31:16.764Z,955.3
2017-12-19T09:32:24.774Z,955.3
2017-12-19T09:33:32.858Z,955.2
2017-12-19T09:34:41.007Z,955.2
2017-12-19T09:35:49.035Z,955.2
2017-12-19T09:36:57.120Z,955.2
2017-12-19T09:38:05.264Z,955.2
2017-12-19T09:39:13.293Z,955.2
2017-12-19T09:40:21.505Z,955.2
2017-12-19T09:41:29.471Z,955.2
2017-12-19T09:42:37.564Z,955.2
2017-12-19T09:43:46.115Z,955.2
2017-12-19T09:44:54.204Z,955.2
2017-12-19T09:46:02.405Z,955.3
2017-12-19T09:47:10.471Z,955.2
2017-12-19T09:48:18.455Z,955.2
2017-12-19T09:49:26.541Z,955.2
2017-12-19T09:50:34.629Z,955.2
2017-12-19T09:51:42.864Z,955.2
2017-12-19T09:52:50.799Z,955.3
2017-12-19T09:53:59.009Z,955.3
2017-12-19T09:55:06.977Z,955.3
2017-12-19T09:56:15.059Z,955.4
2017-12-19T09:57:23.240Z,955.4
2017-12-19T09:58:31.236Z,955.4
2017-12-19T09:59:39.322Z,955.5
2017-12-19T10:00:47.407Z,955.5
2017-12-19T10:01:55.526Z,955.4
2017-12-19T10:03:03.702Z,955.4
2017-12-19T10:04:11.665Z,955.4
2017-12-19T10:05:19.760Z,955.4
2017-12-19T10:06:27.842Z,955.5
2017-12-19T10:07:35.928Z,955.5
2017-12-19T10:08:44.260Z,955.5
2017-12-19T10:09:52.217Z,955.5
2017-12-19T10:11:00.346Z,955.4
2017-12-19T10:12:08.433Z,955.4
2017-12-19T10:13:16.519Z,955.4
2017-12-19T10:14:24.768Z,955.3
2017-12-19T10:15:32.693Z,955.3
2017-12-19T10:16:40.779Z,955.3
2017-12-19T10:17:48.865Z,955.3
2017-12-19T10:18:57.073Z,955.2
2017-12-19T10:20:05.090Z,955.2
2017-12-19T10:21:13.136Z,955.2
2017-12-19T10:22:21.222Z,955.1
2017-12-19T10:23:29.396Z,955.1
2017-12-19T10:24:37.398Z,955.1
2017-12-19T10:25:45.606Z,955.1
2017-12-19T10:26:53.569Z,955.2
2017-12-19T10:28:01.657Z,955.2
2017-12-19T10:29:09.743Z,955.2
2017-12-19T10:30:17.828Z,955.2
2017-12-19T10:31:25.971Z,955.1
2017-12-19T10:32:34.188Z,955.1
2017-12-19T10:33:42.094Z,955.2
2017-12-19T10:34:50.174Z,955.2
2017-12-19T10:35:58.260Z,955.3
2017-12-19T10:37:06.654Z,955.3
2017-12-19T10:38:14.431Z,955.4
2017-12-19T10:39:22.519Z,955.4
2017-12-19T10:40:30.614Z,955.4
2017-12-19T10:41:38.750Z,955.5
2017-12-19T10:42:46.960Z,955.5
2017-12-19T10:43:54.867Z,955.5
2017-12-19T10:45:02.954Z,955.5
2017-12-19T10:46:11.042Z,955.5
2017-12-19T10:47:19.126Z,955.5
2017-12-19T10:48:27.332Z,955.5
2017-12-19T10:49:35.299Z,955.4
2017-12-19T10:50:43.382Z,955.3
2017-12-19T10:51:51.473Z,955.3
2017-12-19T10:52:59.557Z,955.2
2017-12-19T10:54:07.707Z,955.1
2017-12-19T10:55:15.817Z,955.1
2017-12-19T10:56:23.827Z,955.1
2017-12-19T10:57:32.033Z,955.2
2017-12-19T10:58:39.998Z,955.2
2017-12-19T10:59:48.148Z,955.2
2017-12-19T11:00:56.368Z,955.2
2017-12-19T11:02:04.541Z,955.2
2017-12-19T11:03:12.746Z,955.2
2017-12-19T11:04:20.771Z,955.2
2017-12-19T11:05:28.865Z,955.2
2017-12-19T11:06:36.888Z,955.2
2017-12-19T11:07:44.975Z,955.3
2017-12-19T11:08:53.062Z,955.3
2017-12-19T11:10:01.138Z,955.3
2017-12-19T11:11:09.289Z,955.2
2017-12-19T11:12:17.319Z,955.2
2017-12-19T11:13:25.701Z,955.2
2017-12-19T11:14:33.511Z,955.2
2017-12-19T11:15:41.608Z,955.1
2017-12-19T11:16:49.813Z,955.0
2017-12-19T11:17:57.777Z,955.0
2017-12-19T11:19:05.864Z,955.0
2017-12-19T11:20:13.953Z,955.0
2017-12-19T11:21:22.039Z,955.0
2017-12-19T11:22:30.205Z,955.0
2017-12-19T11:23:38.382Z,955.0
2017-12-19T11:24:46.297Z,954.9
2017-12-19T11:25:54.382Z,954.9
2017-12-19T11:27:02.498Z,954.9
2017-12-19T11:28:10.619Z,954.8
2017-12-19T11:29:18.773Z,954.8
2017-12-19T11:30:26.738Z,954.9
2017-12-19T11:31:34.834Z,954.9
2017-12-19T11:32:42.919Z,955.0
2017-12-19T11:33:51.065Z,955.0
2017-12-19T11:34:59.092Z,954.9
2017-12-19T11:36:07.211Z,954.9
2017-12-19T11:37:15.272Z,954.9
2017-12-19T11:38:23.361Z,955.0
2017-12-19T11:39:31.540Z,955.0
2017-12-19T11:40:39.540Z,955.1
2017-12-19T11:41:47.622Z,955.1
2017-12-19T11:42:55.710Z,955.0
2017-12-19T11:44:03.799Z,955.0
2017-12-19T11:45:11.956Z,955.0
2017-12-19T11:46:19.980Z,955.0
2017-12-19T11:47:28.072Z,955.1
2017-12-19T11:48:36.153Z,955.1
2017-12-19T11:49:44.247Z,955.0
2017-12-19T11:50:52.453Z,955.1
2017-12-19T11:52:00.420Z,955.0
2017-12-19T11:53:08.505Z,955.0
2017-12-19T11:54:16.710Z,955.0
2017-12-19T11:55:24.680Z,955.1
2017-12-19T11:56:32.884Z,955.0
2017-12-19T11:57:40.850Z,955.0
2017-12-19T11:58:48.938Z,955.1
2017-12-19T11:59:57.025Z,955.1
2017-12-19T12:01:05.164Z,955.2
2017-12-19T12:02:13.267Z,955.2
2017-12-19T12:03:21.283Z,955.1
2017-12-19T12:04:29.398Z,955.2
2017-12-19T12:05:37.456Z,955.2
2017-12-19T12:06:45.545Z,955.1
2017-12-19T12:07:53.685Z,955.1
2017-12-19T12:09:01.714Z,955.1
2017-12-19T12:10:09.797Z,955.2
2017-12-19T12:11:17.884Z,955.2
2017-12-19T12:12:25.968Z,955.2
2017-12-19T12:13:34.176Z,955.2
2017-12-19T12:14:42.151Z,955.2
2017-12-19T12:15:50.232Z,955.1
2017-12-19T12:16:58.372Z,955.1
2017-12-19T12:18:06.403Z,955.1
2017-12-19T12:19:14.610Z,955.2
2017-12-19T12:20:22.573Z,955.1
2017-12-19T12:21:30.659Z,955.1
2017-12-19T12:22:38.779Z,955.1
2017-12-19T12:23:46.830Z,955.2
2017-12-19T12:24:54.975Z,955.2
2017-12-19T12:26:03.004Z,955.1
2017-12-19T12:27:11.088Z,955.1
2017-12-19T12:28:19.177Z,955.2
2017-12-19T12:29:27.264Z,955.2
2017-12-19T12:30:35.405Z,955.3
2017-12-19T12:31:43.434Z,955.3
2017-12-19T12:32:51.646Z,955.2
2017-12-19T12:33:59.607Z,955.1
2017-12-19T12:35:07.693Z,955.0
2017-12-19T12:36:15.976Z,955.0
2017-12-19T12:37:23.867Z,955.0
2017-12-19T12:38:31.952Z,954.9
2017-12-19T12:39:40.037Z,954.9
2017-12-19T12:40:48.168Z,954.9
2017-12-19T12:41:56.329Z,954.9
2017-12-19T12:43:04.294Z,954.9
2017-12-19T12:44:12.389Z,954.9
2017-12-19T12:45:20.469Z,954.9
2017-12-19T12:46:28.553Z,954.9
2017-12-19T12:47:36.761Z,954.9
2017-12-19T12:48:44.781Z,954.9
2017-12-19T12:49:52.812Z,954.9
2017-12-19T12:51:00.895Z,954.9
2017-12-19T12:52:08.982Z,955.0
2017-12-19T12:53:17.125Z,955.0
2017-12-19T12:54:25.155Z,955.0
2017-12-19T12:55:33.241Z,955.0
2017-12-19T12:56:41.358Z,955.0
2017-12-19T12:57:49.414Z,955.0
2017-12-19T12:58:57.625Z,955.0
2017-12-19T13:00:05.587Z,955.0
2017-12-19T13:01:13.669Z,955.0
2017-12-19T13:02:21.755Z,955.0
2017-12-19T13:03:29.842Z,955.0
2017-12-19T13:04:37.986Z,955.0
2017-12-19T13:05:46.018Z,955.0
2017-12-19T13:06:54.101Z,955.0
2017-12-19T13:08:02.191Z,954.9
2017-12-19T13:09:10.272Z,954.9
2017-12-19T13:10:18.477Z,954.8
2017-12-19T13:11:26.440Z,954.9
2017-12-19T13:12:34.525Z,954.9
2017-12-19T13:13:42.701Z,954.9
2017-12-19T13:14:50.700Z,954.8
2017-12-19T13:15:58.840Z,954.7
2017-12-19T13:17:06.869Z,954.7
2017-12-19T13:18:14.957Z,954.8
2017-12-19T13:19:23.040Z,954.8
2017-12-19T13:20:31.184Z,954.9
2017-12-19T13:21:39.334Z,954.9
2017-12-19T13:22:47.297Z,954.9
2017-12-19T13:23:55.386Z,955.0
2017-12-19T13:25:03.475Z,954.9
2017-12-19T13:26:11.558Z,955.0
2017-12-19T13:27:19.764Z,955.0
2017-12-19T13:28:27.826Z,954.9
2017-12-19T13:29:35.813Z,954.8
2017-12-19T13:30:43.898Z,954.7
2017-12-19T13:31:52.150Z,954.7
2017-12-19T13:33:00.222Z,954.8
2017-12-19T13:34:08.186Z,954.9
2017-12-19T13:35:16.273Z,955.0
2017-12-19T13:36:24.612Z,955.0
2017-12-19T13:37:32.443Z,955.0
2017-12-19T13:38:40.585Z,955.0
2017-12-19T13:39:48.621Z,955.0
2017-12-19T13:40:56.851Z,955.0
2017-12-19T13:42:04.788Z,955.0
2017-12-19T13:43:12.870Z,955.0
2017-12-19T13:44:21.076Z,955.1
2017-12-19T13:45:29.040Z,955.1
2017-12-19T13:46:37.128Z,955.2
2017-12-19T13:47:45.210Z,955.1
2017-12-19T13:48:53.304Z,955.1
2017-12-19T13:50:01.601Z,955.1
2017-12-19T13:51:09.594Z,955.0
2017-12-19T13:52:17.732Z,955.0
2017-12-19T13:53:25.840Z,955.0
2017-12-19T13:54:33.925Z,955.0
2017-12-19T13:55:42.066Z,955.0
2017-12-19T13:56:50.096Z,955.0
2017-12-19T13:57:58.202Z,955.0
2017-12-19T13:59:06.344Z,955.0
2017-12-19T14:00:14.352Z,955.0
2017-12-19T14:01:22.491Z,955.0
2017-12-19T14:02:30.523Z,954.9
2017-12-19T14:03:38.689Z,954.9
2017-12-19T14:04:46.690Z,954.9
2017-12-19T14:05:54.777Z,954.9
2017-12-19T14:07:02.919Z,954.9
2017-12-19T14:08:11.005Z,955.0
2017-12-19T14:09:19.033Z,955.0
2017-12-19T14:10:27.134Z,955.0
2017-12-19T14:11:35.233Z,954.9
2017-12-19T14:12:43.381Z,954.9
2017-12-19T14:13:51.408Z,954.9
2017-12-19T14:14:59.494Z,954.9
2017-12-19T14:16:07.589Z,955.0
2017-12-19T14:17:15.672Z,955.1
2017-12-19T14:18:23.824Z,955.1
2017-12-19T14:19:31.851Z,955.2
2017-12-19T14:20:39.939Z,955.2
2017-12-19T14:21:48.034Z,955.2
2017-12-19T14:22:56.119Z,955.2
2017-12-19T14:24:04.262Z,955.2
2017-12-19T14:25:12.296Z,955.3
2017-12-19T14:26:20.374Z,955.4
2017-12-19T14:27:28.459Z,955.4
2017-12-19T14:28:36.545Z,955.4
2017-12-19T14:29:44.749Z,955.4
2017-12-19T14:30:52.714Z,955.4
2017-12-19T14:32:00.799Z,955.4
2017-12-19T14:33:08.882Z,955.4
2017-12-19T14:34:16.966Z,955.4
2017-12-19T14:35:25.175Z,955.4
2017-12-19T14:36:33.327Z,955.4